Time;durP1;ratioP1;P1;durP2;ratioP2;P2;SDS_P1;SDS_P2;PMS_P1;PMS_P2;Temp;Humidity;BMP_temperature;BMP_pressure;BME280_temperature;BME280_humidity;BME280_pressure;Samples;Min_cycle;Max_cycle;Signal;HPM_P1;HPM_P2
2023/01/04 00:02:06;;;;;;;6.72;3.80;;;10.10;92.80;;;;;;5004130;28;20038;-80
2023/01/04 00:04:32;;;;;;;10.52;4.80;;;10.10;92.70;;;;;;5015442;28;20017;-74
2023/01/04 00:06:58;;;;;;;10.77;4.70;;;10.10;92.70;;;;;;5013262;28;20026;-76
2023/01/04 00:09:24;;;;;;;9.00;4.28;;;10.10;92.80;;;;;;5011441;28;20109;-78
2023/01/04 00:11:50;;;;;;;10.52;4.65;;;10.10;92.80;;;;;;5009174;28;20113;-76
2023/01/04 00:14:17;;;;;;;9.20;3.60;;;10.10;92.90;;;;;;5013746;28;20442;-76
2023/01/04 00:16:43;;;;;;;9.40;4.03;;;10.10;92.80;;;;;;5003811;28;20576;-77
2023/01/04 00:19:10;;;;;;;8.68;4.05;;;10.10;93.00;;;;;;5015775;28;20033;-77
2023/01/04 00:21:36;;;;;;;10.75;5.40;;;10.10;93.00;;;;;;5008995;28;20069;-76
2023/01/04 00:24:03;;;;;;;15.60;4.63;;;10.20;93.00;;;;;;5008867;28;20489;-77
2023/01/04 00:26:31;;;;;;;8.82;3.65;;;10.10;92.90;;;;;;5007847;28;20025;-76
2023/01/04 00:28:59;;;;;;;9.10;4.10;;;10.20;92.90;;;;;;5006990;28;20021;-79
2023/01/04 00:31:25;;;;;;;12.23;3.95;;;10.20;93.00;;;;;;5007899;28;20057;-79
2023/01/04 00:33:56;;;;;;;10.32;3.58;;;10.20;93.00;;;;;;5012577;28;20105;-77
2023/01/04 00:36:23;;;;;;;9.90;4.22;;;10.20;93.10;;;;;;5008802;28;20099;-76
2023/01/04 00:39:05;;;;;;;10.13;4.18;;;10.10;93.10;;;;;;4999150;28;20064;-77
2023/01/04 00:41:33;;;;;;;8.82;4.35;;;10.20;93.20;;;;;;5003957;28;20218;-79
2023/01/04 00:44:02;;;;;;;9.38;4.20;;;10.20;93.20;;;;;;5006470;28;20018;-76
2023/01/04 00:46:28;;;;;;;12.82;4.07;;;10.20;93.30;;;;;;5007092;28;20045;-78
2023/01/04 00:48:55;;;;;;;8.32;4.10;;;10.20;93.40;;;;;;5003038;28;20120;-77
2023/01/04 00:51:21;;;;;;;8.35;4.30;;;10.20;93.40;;;;;;5012252;28;20048;-74
2023/01/04 00:54:02;;;;;;;10.98;4.32;;;10.20;93.40;;;;;;5008002;28;20033;-75
2023/01/04 00:56:28;;;;;;;9.55;4.20;;;10.20;93.50;;;;;;5006364;28;20041;-76
2023/01/04 00:59:00;;;;;;;7.57;3.72;;;10.20;93.50;;;;;;5009487;28;20060;-78
2023/01/04 01:01:28;;;;;;;8.18;3.85;;;10.30;93.50;;;;;;5005958;28;20029;-78
2023/01/04 01:03:56;;;;;;;9.02;4.03;;;10.30;93.60;;;;;;5007140;28;20027;-75
2023/01/04 01:06:26;;;;;;;8.10;4.00;;;10.30;93.60;;;;;;4998590;28;20140;-74
2023/01/04 01:08:52;;;;;;;8.73;3.78;;;10.30;93.70;;;;;;5011073;28;20688;-78
2023/01/04 01:11:19;;;;;;;6.78;3.15;;;10.40;93.60;;;;;;5007249;28;20034;-74
2023/01/04 01:13:46;;;;;;;8.15;3.97;;;10.30;93.40;;;;;;5011623;28;20056;-75
2023/01/04 01:16:17;;;;;;;7.72;3.20;;;10.30;93.40;;;;;;5003856;28;20152;-76
2023/01/04 01:18:44;;;;;;;6.68;3.45;;;10.40;93.50;;;;;;5002850;28;20048;-75
2023/01/04 01:21:13;;;;;;;6.18;2.83;;;10.40;93.50;;;;;;5002758;28;20033;-75
2023/01/04 01:23:40;;;;;;;11.13;3.65;;;10.40;93.40;;;;;;5009425;28;20032;-76
2023/01/04 01:26:09;;;;;;;9.77;3.67;;;10.40;93.40;;;;;;5004445;28;20029;-74
2023/01/04 01:28:35;;;;;;;5.43;2.97;;;10.40;93.40;;;;;;5004154;28;20061;-75
2023/01/04 01:31:14;;;;;;;9.15;3.20;;;10.40;93.50;;;;;;5008606;28;20045;-76
2023/01/04 01:33:41;;;;;;;9.38;3.75;;;10.40;93.60;;;;;;5008137;28;20026;-75
2023/01/04 01:36:08;;;;;;;5.97;3.30;;;10.40;93.50;;;;;;5004520;28;20406;-76
2023/01/04 01:38:35;;;;;;;8.95;3.33;;;10.40;93.40;;;;;;5009714;28;20026;-75
2023/01/04 01:41:01;;;;;;;8.23;3.40;;;10.50;93.30;;;;;;5006128;28;20220;-76
2023/01/04 01:43:58;;;;;;;6.78;3.20;;;10.50;93.40;;;;;;5011097;28;20383;-75
2023/01/04 01:47:02;;;;;;;7.28;3.72;;;10.50;93.30;;;;;;5009047;28;20084;-74
2023/01/04 01:49:36;;;;;;;10.07;3.60;;;10.50;93.20;;;;;;5010893;28;20048;-75
2023/01/04 01:52:06;;;;;;;10.23;3.78;;;10.50;93.30;;;;;;5003078;28;20052;-77
2023/01/04 01:54:55;;;;;;;9.38;3.80;;;10.50;93.20;;;;;;5017166;28;20037;-75
2023/01/04 01:57:24;;;;;;;10.23;3.88;;;10.50;93.20;;;;;;5017268;28;20533;-75
2023/01/04 01:59:54;;;;;;;8.88;3.55;;;10.50;93.30;;;;;;5000101;28;20085;-75
2023/01/04 02:02:20;;;;;;;9.55;4.13;;;10.60;93.30;;;;;;5007145;28;20033;-76
2023/01/04 02:04:49;;;;;;;7.22;3.55;;;10.50;93.40;;;;;;5000568;28;20124;-78
2023/01/04 02:07:25;;;;;;;11.23;3.78;;;10.50;93.50;;;;;;5004593;28;20083;-75
2023/01/04 02:09:51;;;;;;;8.50;4.00;;;10.50;93.50;;;;;;5006014;28;20033;-77
2023/01/04 02:12:16;;;;;;;9.75;3.95;;;10.50;93.60;;;;;;5000779;28;20030;-76
2023/01/04 02:14:45;;;;;;;6.90;3.55;;;10.60;93.60;;;;;;5013208;28;20046;-77
2023/01/04 02:17:29;;;;;;;7.95;4.32;;;10.60;93.60;;;;;;5000272;28;20501;-79
2023/01/04 02:20:01;;;;;;;8.75;3.55;;;10.60;93.60;;;;;;5003853;28;20471;-78
2023/01/04 02:22:48;;;;;;;8.70;3.55;;;10.60;93.70;;;;;;5005638;28;20529;-76
2023/01/04 02:25:39;;;;;;;8.98;3.55;;;10.60;93.70;;;;;;5006828;28;20113;-76
2023/01/04 02:28:33;;;;;;;9.73;4.05;;;10.60;93.80;;;;;;5009244;28;20624;-75
2023/01/04 02:31:04;;;;;;;8.25;3.70;;;10.60;93.90;;;;;;4990175;28;20363;-77
2023/01/04 02:33:51;;;;;;;11.23;4.30;;;10.60;94.00;;;;;;4998752;28;20022;-79
2023/01/04 02:36:36;;;;;;;9.10;3.97;;;10.60;93.90;;;;;;4989429;28;20125;-75
2023/01/04 02:39:42;;;;;;;9.50;4.43;;;10.60;94.00;;;;;;4978059;28;20022;-75
2023/01/04 02:42:08;;;;;;;11.75;4.68;;;10.60;94.00;;;;;;4992590;28;20064;-75
2023/01/04 02:44:54;;;;;;;9.93;3.88;;;10.60;94.10;;;;;;4984171;28;20026;-77
2023/01/04 02:50:30;;;;;;;10.80;4.40;;;10.70;94.20;;;;;;4999804;28;20084;-75
2023/01/04 02:53:12;;;;;;;10.35;4.00;;;10.70;94.30;;;;;;4995968;28;20057;-75
2023/01/04 02:55:41;;;;;;;9.80;4.15;;;10.70;94.30;;;;;;4981443;28;20555;-77
2023/01/04 02:58:31;;;;;;;9.50;4.20;;;10.80;94.40;;;;;;4987068;28;20695;-75
2023/01/04 03:08:01;;;;;;;6.90;3.17;;;11.10;93.70;;;;;;4992923;28;20037;-75
2023/01/04 03:10:36;;;;;;;8.15;3.50;;;11.00;94.00;;;;;;4985465;28;20038;-76
2023/01/04 03:13:12;;;;;;;6.60;3.53;;;10.90;93.90;;;;;;4984961;28;20026;-75
2023/01/04 03:15:40;;;;;;;6.40;3.13;;;10.90;93.90;;;;;;4988131;28;20045;-76
2023/01/04 03:18:21;;;;;;;6.60;3.15;;;10.90;93.90;;;;;;4995270;28;20033;-75
2023/01/04 03:20:53;;;;;;;9.10;3.70;;;10.90;94.00;;;;;;5003972;28;20029;-74
2023/01/04 03:36:16;;;;;;;7.47;3.63;;;11.00;93.90;;;;;;4988511;28;20129;-76
2023/01/04 03:48:30;;;;;;;7.80;3.53;;;11.00;94.00;;;;;;4987529;28;20036;-74
2023/01/04 03:51:05;;;;;;;5.93;3.25;;;11.00;94.00;;;;;;4975202;28;20039;-75
2023/01/04 03:53:36;;;;;;;9.65;3.80;;;11.00;94.00;;;;;;4978144;28;20597;-76
2023/01/04 03:56:02;;;;;;;6.18;3.25;;;11.00;94.00;;;;;;4980057;28;20565;-75
2023/01/04 03:58:28;;;;;;;7.18;3.42;;;11.00;94.00;;;;;;4987456;28;20382;-75
2023/01/04 04:01:02;;;;;;;6.38;3.75;;;11.00;94.00;;;;;;4987462;28;20468;-78
2023/01/04 04:08:57;;;;;;;8.00;4.05;;;11.00;94.10;;;;;;4989705;28;20506;-75
2023/01/04 04:11:31;;;;;;;6.93;3.90;;;11.00;94.30;;;;;;4983488;28;20932;-77
2023/01/04 04:13:59;;;;;;;7.90;3.72;;;11.00;94.40;;;;;;4979720;28;20048;-77
2023/01/04 04:16:26;;;;;;;7.32;3.47;;;11.00;94.40;;;;;;4985167;28;20420;-78
2023/01/04 04:18:51;;;;;;;5.93;2.97;;;11.00;94.40;;;;;;4982483;28;20076;-75
2023/01/04 04:21:17;;;;;;;10.77;3.67;;;11.00;94.40;;;;;;4980251;28;20435;-74
2023/01/04 04:23:43;;;;;;;6.30;3.20;;;11.00;94.50;;;;;;4986339;28;20022;-75
2023/01/04 04:26:09;;;;;;;5.03;2.90;;;11.10;94.40;;;;;;4980895;28;20506;-75
2023/01/04 04:28:35;;;;;;;6.28;3.20;;;11.10;94.50;;;;;;4984866;28;20576;-78
2023/01/04 04:31:01;;;;;;;6.82;3.08;;;11.10;94.50;;;;;;4990292;28;20038;-77
2023/01/04 04:33:27;;;;;;;6.82;3.50;;;11.10;94.50;;;;;;4982139;28;20030;-76
2023/01/04 04:35:54;;;;;;;5.25;3.00;;;11.10;94.50;;;;;;4984420;28;20026;-75
2023/01/04 04:38:20;;;;;;;6.03;3.17;;;11.10;94.50;;;;;;4993838;28;20034;-76
2023/01/04 04:43:32;;;;;;;6.95;3.40;;;11.10;94.50;;;;;;4982221;28;20174;-76
2023/01/04 04:45:58;;;;;;;7.90;3.25;;;11.10;94.60;;;;;;4983314;28;20049;-77
2023/01/04 04:48:24;;;;;;;5.38;3.28;;;11.10;94.60;;;;;;4998459;28;20026;-75
2023/01/04 04:50:50;;;;;;;6.60;3.25;;;11.10;94.70;;;;;;4997827;28;20042;-76
2023/01/04 04:53:15;;;;;;;7.38;3.20;;;11.10;94.60;;;;;;4997354;28;20465;-75
2023/01/04 04:55:41;;;;;;;5.28;3.13;;;11.10;94.70;;;;;;4981499;28;20025;-76
2023/01/04 04:58:07;;;;;;;6.15;3.10;;;11.10;94.80;;;;;;4984020;28;20030;-77
2023/01/04 05:00:33;;;;;;;7.63;3.08;;;11.10;94.80;;;;;;4990333;28;20062;-76
2023/01/04 05:02:59;;;;;;;5.53;3.28;;;11.10;94.80;;;;;;4997209;28;20489;-75
2023/01/04 05:05:24;;;;;;;6.00;3.30;;;11.10;94.90;;;;;;4994108;28;20022;-74
2023/01/04 05:07:50;;;;;;;5.40;3.38;;;11.10;94.90;;;;;;4997426;28;20061;-74
2023/01/04 05:10:16;;;;;;;6.15;3.20;;;11.10;94.90;;;;;;4992599;28;20033;-76
2023/01/04 05:13:00;;;;;;;5.25;3.50;;;11.10;94.90;;;;;;4995741;28;20034;-75
2023/01/04 05:15:31;;;;;;;7.00;3.50;;;11.20;95.00;;;;;;4991541;28;20050;-76
2023/01/04 05:17:57;;;;;;;5.88;3.60;;;11.10;95.00;;;;;;4984408;28;20037;-75
2023/01/04 05:20:22;;;;;;;5.22;3.63;;;11.10;95.00;;;;;;4991516;28;20037;-76
2023/01/04 05:22:48;;;;;;;5.68;3.47;;;11.10;95.10;;;;;;4995535;28;20053;-75
2023/01/04 05:25:14;;;;;;;6.15;3.60;;;11.10;95.10;;;;;;4996349;28;20498;-74
2023/01/04 05:27:40;;;;;;;6.63;3.28;;;11.10;95.10;;;;;;4984023;28;20035;-76
2023/01/04 05:32:50;;;;;;;;;;;11.10;95.20;;;;;;4988346;28;20426;-76
2023/01/04 05:35:16;;;;;;;6.18;4.28;;;11.20;95.20;;;;;;4985792;28;19909;-75
2023/01/04 05:37:42;;;;;;;6.63;4.03;;;11.10;95.20;;;;;;4985266;28;20088;-78
2023/01/04 05:40:08;;;;;;;7.07;3.88;;;11.10;95.30;;;;;;4989461;28;20033;-76
2023/01/04 05:42:34;;;;;;;7.07;4.22;;;11.10;95.40;;;;;;4991221;28;20061;-75
2023/01/04 05:45:00;;;;;;;7.85;4.10;;;11.10;95.40;;;;;;4989279;28;20023;-77
2023/01/04 05:47:27;;;;;;;6.55;4.20;;;11.10;95.40;;;;;;4988941;28;20045;-75
2023/01/04 05:49:53;;;;;;;6.88;3.90;;;11.20;95.40;;;;;;4992448;28;20040;-75
2023/01/04 05:52:19;;;;;;;6.13;3.75;;;11.10;95.40;;;;;;4988499;28;20038;-79
2023/01/04 05:54:45;;;;;;;5.80;3.55;;;11.10;95.50;;;;;;4989976;28;20033;-76
2023/01/04 05:57:12;;;;;;;6.38;4.15;;;11.20;95.40;;;;;;4995766;28;20031;-76
2023/01/04 05:59:37;;;;;;;5.28;3.60;;;11.20;95.40;;;;;;4999102;28;20136;-76
2023/01/04 06:02:04;;;;;;;5.75;3.63;;;11.20;95.40;;;;;;4996368;28;20129;-78
2023/01/04 06:04:30;;;;;;;4.40;3.08;;;11.30;95.40;;;;;;4998057;28;20124;-78
2023/01/04 06:06:55;;;;;;;7.32;3.70;;;11.30;95.40;;;;;;4993015;28;20113;-77
2023/01/04 06:09:21;;;;;;;6.18;3.17;;;11.30;95.30;;;;;;5002368;28;20437;-76
2023/01/04 06:11:46;;;;;;;5.35;2.92;;;11.30;95.30;;;;;;4989169;28;20039;-78
2023/01/04 06:14:12;;;;;;;5.43;2.90;;;11.30;95.20;;;;;;4996753;28;20500;-79
2023/01/04 06:16:38;;;;;;;6.00;2.60;;;11.30;95.20;;;;;;4992568;28;20036;-77
2023/01/04 06:19:03;;;;;;;5.57;2.53;;;11.30;95.20;;;;;;4997669;28;20245;-76
2023/01/04 06:21:29;;;;;;;6.03;2.60;;;11.40;95.10;;;;;;4998229;28;20042;-76
2023/01/04 06:23:55;;;;;;;5.53;3.28;;;11.30;95.00;;;;;;4987292;28;20014;-79
2023/01/04 06:26:20;;;;;;;7.13;2.55;;;11.40;95.00;;;;;;4992012;28;20288;-76
2023/01/04 06:28:46;;;;;;;7.13;2.88;;;11.40;94.90;;;;;;5004319;28;20387;-79
2023/01/04 06:31:12;;;;;;;4.97;2.88;;;11.40;94.90;;;;;;4986923;28;20053;-78
2023/01/04 06:33:38;;;;;;;5.30;2.50;;;11.40;94.90;;;;;;4991607;28;20056;-79
2023/01/04 06:36:05;;;;;;;7.28;3.00;;;11.40;94.80;;;;;;4977180;28;20042;-79
2023/01/04 06:38:32;;;;;;;6.13;2.30;;;11.50;94.80;;;;;;4998028;28;20021;-76
2023/01/04 06:40:58;;;;;;;6.60;2.50;;;11.40;94.70;;;;;;4987216;28;20053;-76
2023/01/04 06:43:24;;;;;;;7.63;2.92;;;11.40;94.80;;;;;;4989777;28;20513;-77
2023/01/04 06:45:50;;;;;;;11.38;2.90;;;11.40;94.90;;;;;;4988841;28;20026;-77
2023/01/04 06:48:16;;;;;;;4.43;2.70;;;11.40;94.90;;;;;;4996897;28;20044;-77
2023/01/04 06:50:41;;;;;;;6.22;2.88;;;11.40;94.90;;;;;;4989415;28;20042;-77
2023/01/04 06:53:07;;;;;;;7.25;3.30;;;11.50;95.00;;;;;;4999520;28;20026;-77
2023/01/04 06:55:33;;;;;;;8.35;3.30;;;11.50;94.90;;;;;;4991749;28;20041;-77
2023/01/04 06:57:58;;;;;;;5.45;2.72;;;11.50;95.00;;;;;;4991093;28;20022;-76
2023/01/04 07:00:24;;;;;;;9.27;3.45;;;11.50;95.00;;;;;;4995636;28;20060;-77
2023/01/04 07:02:50;;;;;;;8.50;3.42;;;11.50;95.00;;;;;;4989087;28;20414;-78
2023/01/04 07:05:16;;;;;;;8.48;3.97;;;11.50;95.00;;;;;;4988962;28;20023;-76
2023/01/04 07:07:41;;;;;;;9.52;3.50;;;11.50;95.00;;;;;;4990323;28;20116;-76
2023/01/04 07:10:07;;;;;;;9.10;3.75;;;11.40;95.00;;;;;;4993977;28;20660;-77
2023/01/04 07:12:33;;;;;;;12.15;3.47;;;11.50;95.00;;;;;;4988250;28;20035;-77
2023/01/04 07:14:59;;;;;;;9.13;3.35;;;11.50;95.00;;;;;;4985385;28;20046;-77
2023/01/04 07:17:25;;;;;;;9.65;3.65;;;11.50;95.00;;;;;;4984428;28;20038;-77
2023/01/04 07:19:51;;;;;;;10.55;4.20;;;11.50;94.90;;;;;;4985562;28;20435;-76
2023/01/04 07:22:17;;;;;;;8.07;3.55;;;11.60;94.80;;;;;;4979401;28;20050;-78
2023/01/04 07:24:42;;;;;;;8.73;3.20;;;11.50;94.80;;;;;;4988936;28;20019;-78
2023/01/04 07:27:11;;;;;;;11.15;3.70;;;11.60;94.70;;;;;;4985159;28;20049;-78
2023/01/04 07:29:37;;;;;;;10.73;3.70;;;11.60;94.70;;;;;;4994020;28;20021;-79
2023/01/04 07:32:03;;;;;;;11.70;4.38;;;11.60;94.60;;;;;;4982793;28;20711;-77
2023/01/04 07:34:30;;;;;;;15.48;5.47;;;11.60;94.50;;;;;;4990449;28;20014;-77
2023/01/04 07:36:56;;;;;;;10.27;4.55;;;11.70;94.40;;;;;;4985852;28;20041;-76
2023/01/04 07:39:22;;;;;;;13.57;5.00;;;11.70;94.30;;;;;;4991382;28;20023;-78
2023/01/04 07:41:48;;;;;;;11.52;4.82;;;11.70;94.30;;;;;;4988340;28;20053;-79
2023/01/04 07:44:16;;;;;;;17.25;6.65;;;11.70;94.20;;;;;;4984613;28;20026;-76
2023/01/04 07:46:42;;;;;;;10.88;3.92;;;11.80;94.20;;;;;;4981352;28;20530;-82
2023/01/04 07:49:12;;;;;;;11.60;7.10;;;11.80;94.10;;;;;;4983447;28;20507;-81
2023/01/04 07:51:37;;;;;;;10.00;4.97;;;11.80;94.20;;;;;;4983962;28;20046;-81
2023/01/04 07:54:03;;;;;;;10.23;5.30;;;11.80;94.20;;;;;;4984555;28;20033;-76
2023/01/04 07:56:29;;;;;;;10.93;4.72;;;11.80;94.20;;;;;;4984691;28;20130;-81
2023/01/04 07:58:56;;;;;;;8.45;4.57;;;11.80;94.20;;;;;;4986115;28;20026;-79
2023/01/04 08:01:23;;;;;;;8.50;4.95;;;11.80;94.20;;;;;;4994708;28;20505;-77
2023/01/04 08:03:50;;;;;;;8.02;4.38;;;11.80;94.20;;;;;;5000195;28;20029;-79
2023/01/04 08:06:16;;;;;;;11.18;4.40;;;11.80;94.20;;;;;;5002630;28;20046;-76
2023/01/04 08:08:43;;;;;;;11.50;5.22;;;11.80;94.10;;;;;;4984783;28;20022;-78
2023/01/04 08:11:13;;;;;;;7.85;4.55;;;11.80;94.10;;;;;;4983153;28;20054;-80
2023/01/04 08:13:39;;;;;;;13.48;5.32;;;11.90;94.10;;;;;;4990222;28;20046;-80
2023/01/04 08:16:06;;;;;;;10.52;4.90;;;11.90;94.00;;;;;;4983249;28;20041;-77
2023/01/04 08:18:31;;;;;;;9.27;4.70;;;11.90;94.00;;;;;;4985338;28;20026;-79
2023/01/04 08:21:06;;;;;;;8.73;5.05;;;12.00;93.90;;;;;;4981924;28;20035;-80
2023/01/04 08:23:33;;;;;;;10.95;4.25;;;12.00;93.80;;;;;;4980451;28;20675;-80
2023/01/04 08:26:11;;;;;;;11.50;4.43;;;11.90;93.80;;;;;;4986363;28;20041;-79
2023/01/04 08:28:37;;;;;;;11.10;4.82;;;12.00;93.70;;;;;;4984148;28;20052;-81
2023/01/04 08:31:06;;;;;;;9.77;4.57;;;12.00;93.80;;;;;;4982645;28;20569;-81
2023/01/04 08:33:32;;;;;;;8.82;4.15;;;12.10;93.70;;;;;;4982658;28;20037;-82
2023/01/04 08:36:22;;;;;;;9.73;4.38;;;12.10;93.60;;;;;;4982379;28;20342;-80
2023/01/04 08:38:50;;;;;;;11.23;4.32;;;12.10;93.50;;;;;;4981851;28;20030;-81
2023/01/04 08:41:17;;;;;;;8.45;3.88;;;12.10;93.50;;;;;;4989352;28;20061;-79
2023/01/04 08:43:43;;;;;;;13.18;4.68;;;12.10;93.40;;;;;;4997252;28;20025;-80
2023/01/04 08:46:10;;;;;;;9.93;3.75;;;12.10;93.30;;;;;;4992786;28;20118;-80
2023/01/04 08:48:37;;;;;;;10.65;4.68;;;12.10;93.30;;;;;;4993623;28;20022;-79
2023/01/04 08:51:10;;;;;;;8.90;3.60;;;12.10;93.20;;;;;;4995234;28;20457;-80
2023/01/04 08:53:36;;;;;;;9.77;3.85;;;12.20;93.10;;;;;;4984684;28;20014;-78
2023/01/04 08:56:02;;;;;;;7.95;4.10;;;12.20;93.10;;;;;;4987980;28;20041;-79
2023/01/04 08:58:29;;;;;;;9.23;3.97;;;12.20;93.10;;;;;;4984480;28;20033;-79
2023/01/04 09:01:09;;;;;;;8.90;3.90;;;12.20;93.20;;;;;;4994703;28;20034;-78
2023/01/04 09:03:36;;;;;;;8.25;3.85;;;12.20;93.20;;;;;;4989479;28;20025;-79
2023/01/04 09:06:09;;;;;;;8.02;4.07;;;12.10;93.30;;;;;;4992543;28;20375;-78
2023/01/04 09:08:36;;;;;;;10.60;4.53;;;12.10;93.40;;;;;;4994910;28;20043;-79
2023/01/04 09:11:10;;;;;;;12.13;4.85;;;12.10;93.60;;;;;;5001420;28;20046;-78
2023/01/04 09:13:36;;;;;;;7.95;4.47;;;12.10;93.70;;;;;;4984933;28;20088;-78
2023/01/04 09:16:04;;;;;;;10.30;5.38;;;12.10;93.80;;;;;;4991248;28;20663;-78
2023/01/04 09:18:30;;;;;;;10.65;5.07;;;12.10;93.90;;;;;;4997069;28;20101;-80
2023/01/04 09:20:56;;;;;;;14.50;6.32;;;12.10;94.00;;;;;;4997837;28;20114;-79
2023/01/04 09:23:22;;;;;;;12.35;5.20;;;12.10;94.00;;;;;;4984938;28;20049;-79
2023/01/04 09:25:48;;;;;;;10.38;5.53;;;12.10;94.10;;;;;;4985545;28;20034;-78
2023/01/04 09:28:14;;;;;;;9.23;4.68;;;12.10;94.20;;;;;;4984039;28;20025;-79
2023/01/04 09:30:39;;;;;;;10.07;5.22;;;12.10;94.30;;;;;;4984652;28;20046;-80
2023/01/04 09:33:05;;;;;;;12.43;4.97;;;12.10;94.40;;;;;;4984707;28;20539;-78
2023/01/04 09:35:31;;;;;;;14.02;4.97;;;12.10;94.40;;;;;;4980658;28;20389;-78
2023/01/04 09:37:56;;;;;;;10.38;4.65;;;12.10;94.50;;;;;;4984275;28;20015;-80
2023/01/04 09:40:30;;;;;;;9.52;4.38;;;12.10;94.50;;;;;;4984164;28;20022;-76
2023/01/04 09:42:58;;;;;;;10.35;5.22;;;12.10;94.50;;;;;;4983332;28;20051;-78
2023/01/04 09:45:26;;;;;;;10.18;5.07;;;12.10;94.60;;;;;;4983737;28;20113;-80
2023/01/04 09:48:10;;;;;;;8.65;4.53;;;12.10;94.70;;;;;;4982298;28;20033;-80
2023/01/04 09:50:58;;;;;;;8.02;4.22;;;12.10;94.70;;;;;;4978859;28;20026;-79
2023/01/04 09:53:34;;;;;;;9.68;4.90;;;12.10;94.70;;;;;;4982754;28;20090;-81
2023/01/04 09:56:34;;;;;;;6.60;4.18;;;12.10;94.70;;;;;;4981849;28;20034;-79
2023/01/04 09:59:04;;;;;;;9.30;4.55;;;12.10;94.70;;;;;;4982494;28;20018;-80
2023/01/04 10:01:56;;;;;;;7.88;4.75;;;12.20;94.50;;;;;;4983909;28;20097;-80
2023/01/04 10:04:37;;;;;;;8.30;4.00;;;12.30;94.40;;;;;;4985388;28;20491;-79
2023/01/04 10:07:02;;;;;;;7.97;4.28;;;12.40;94.40;;;;;;4986930;28;20034;-79
2023/01/04 10:09:28;;;;;;;6.95;3.70;;;12.40;94.30;;;;;;4989787;28;20038;-79
2023/01/04 10:12:13;;;;;;;8.35;3.70;;;12.40;94.30;;;;;;4994232;28;20053;-77
2023/01/04 10:15:05;;;;;;;9.50;3.72;;;12.40;94.20;;;;;;4995746;28;20169;-78
2023/01/04 10:17:31;;;;;;;8.32;3.75;;;12.50;94.30;;;;;;4985212;28;20064;-78
2023/01/04 10:20:26;;;;;;;6.45;3.38;;;12.50;94.20;;;;;;4998789;28;20402;-78
2023/01/04 10:23:19;;;;;;;7.97;3.67;;;12.50;94.10;;;;;;4992577;28;20042;-78
2023/01/04 10:25:50;;;;;;;6.05;3.10;;;12.50;94.20;;;;;;4988772;28;20505;-78
2023/01/04 10:28:34;;;;;;;7.03;3.50;;;12.50;94.20;;;;;;4993291;28;20068;-78
2023/01/04 10:31:14;;;;;;;6.78;3.10;;;12.60;94.20;;;;;;4990536;28;20050;-77
2023/01/04 10:33:39;;;;;;;6.50;3.13;;;12.60;94.20;;;;;;4984581;28;20045;-78
2023/01/04 10:36:30;;;;;;;9.25;2.95;;;12.60;94.20;;;;;;4983137;28;20035;-77
2023/01/04 10:39:13;;;;;;;4.93;2.60;;;12.60;94.30;;;;;;4983822;28;20054;-77
2023/01/04 10:41:49;;;;;;;7.60;2.78;;;12.50;94.50;;;;;;4993707;28;20067;-79
2023/01/04 10:44:32;;;;;;;6.13;2.80;;;12.40;94.70;;;;;;4986515;28;20502;-78
2023/01/04 10:47:31;;;;;;;7.45;2.80;;;12.40;94.70;;;;;;4989737;28;20088;-78
2023/01/04 10:50:01;;;;;;;5.63;2.65;;;12.50;94.80;;;;;;4994913;28;20017;-78
2023/01/04 10:52:31;;;;;;;6.25;3.22;;;12.50;94.80;;;;;;4991405;28;20112;-79
2023/01/04 10:55:03;;;;;;;6.75;2.97;;;12.50;94.90;;;;;;4998479;28;20042;-79
2023/01/04 10:57:44;;;;;;;4.85;2.67;;;12.50;95.00;;;;;;4966681;28;20022;-80
2023/01/04 11:00:25;;;;;;;5.22;2.30;;;12.50;94.90;;;;;;4971521;28;20026;-78
2023/01/04 11:03:07;;;;;;;5.13;2.60;;;12.50;95.00;;;;;;4975840;28;20785;-80
2023/01/04 11:06:07;;;;;;;5.32;2.33;;;12.50;94.90;;;;;;4960894;28;20722;-79
2023/01/04 11:08:41;;;;;;;5.50;2.60;;;12.60;94.90;;;;;;4970706;28;20089;-79
2023/01/04 11:11:12;;;;;;;6.38;3.00;;;12.60;95.00;;;;;;4973900;28;20034;-79
2023/01/04 11:13:38;;;;;;;6.05;2.60;;;12.60;95.00;;;;;;4973330;28;20093;-79
2023/01/04 11:16:05;;;;;;;6.47;2.80;;;12.60;95.00;;;;;;4975572;28;20479;-79
2023/01/04 11:18:35;;;;;;;6.30;2.90;;;12.60;95.00;;;;;;4975297;28;20011;-79
2023/01/04 11:21:05;;;;;;;5.13;3.00;;;12.60;95.00;;;;;;4964675;28;20042;-80
2023/01/04 11:23:31;;;;;;;6.78;3.85;;;12.60;95.10;;;;;;4963658;28;20053;-80
2023/01/04 11:26:00;;;;;;;5.95;2.83;;;12.60;95.00;;;;;;4966459;28;20058;-79
2023/01/04 11:28:36;;;;;;;4.93;2.90;;;12.60;95.10;;;;;;4962740;28;20098;-80
2023/01/04 11:31:17;;;;;;;4.75;2.53;;;12.60;95.10;;;;;;4963014;28;20039;-77
2023/01/04 11:34:00;;;;;;;5.57;2.75;;;12.70;95.10;;;;;;4963221;28;20073;-81
2023/01/04 11:36:33;;;;;;;6.43;3.20;;;12.60;95.10;;;;;;4963657;28;20038;-80
2023/01/04 11:38:59;;;;;;;7.70;5.10;;;12.70;95.10;;;;;;4964585;28;20014;-80
2023/01/04 11:41:25;;;;;;;6.65;3.70;;;12.70;95.10;;;;;;4965142;28;20046;-78
2023/01/04 11:44:00;;;;;;;6.63;3.20;;;12.70;95.10;;;;;;4964275;28;20742;-77
2023/01/04 11:46:26;;;;;;;;;;;12.70;95.10;;;;;;4966404;28;20416;-78
2023/01/04 11:48:52;;;;;;;6.80;4.70;;;12.80;95.10;;;;;;4964307;28;19940;-79
2023/01/04 11:51:30;;;;;;;9.68;5.05;;;12.80;95.10;;;;;;4960881;28;20058;-79
2023/01/04 11:54:19;;;;;;;6.40;4.03;;;12.80;95.10;;;;;;4962816;28;20025;-78
2023/01/04 11:57:08;;;;;;;5.57;3.60;;;12.80;95.20;;;;;;4966057;28;20042;-75
2023/01/04 11:59:40;;;;;;;7.20;4.03;;;12.90;95.20;;;;;;4962492;28;20027;-79
2023/01/04 12:02:20;;;;;;;6.72;4.50;;;12.90;95.10;;;;;;4966952;28;20430;-80
2023/01/04 12:04:47;;;;;;;5.28;3.60;;;12.90;95.10;;;;;;4980515;28;20492;-81
2023/01/04 12:07:34;;;;;;;7.05;4.60;;;12.90;95.10;;;;;;4973292;28;20030;-77
2023/01/04 12:10:20;;;;;;;6.43;3.83;;;12.90;95.10;;;;;;4975250;28;20057;-78
2023/01/04 12:12:47;;;;;;;8.05;4.82;;;13.00;95.10;;;;;;4975266;28;20046;-77
2023/01/04 12:15:21;;;;;;;7.60;4.35;;;13.00;95.00;;;;;;4975462;28;20046;-79
2023/01/04 12:17:50;;;;;;;6.90;4.85;;;13.00;95.00;;;;;;4964298;28;20034;-80
2023/01/04 12:20:19;;;;;;;7.72;4.82;;;13.00;95.00;;;;;;4977495;28;20170;-77
2023/01/04 12:22:45;;;;;;;8.73;4.63;;;13.10;94.90;;;;;;4955312;28;20054;-78
2023/01/04 12:25:30;;;;;;;7.30;4.50;;;13.10;94.80;;;;;;4967872;28;20034;-80
2023/01/04 12:27:56;;;;;;;10.38;5.63;;;13.10;94.70;;;;;;4974885;28;20042;-76
2023/01/04 12:30:45;;;;;;;10.35;4.90;;;13.10;94.60;;;;;;4972028;28;20035;-79
2023/01/04 12:33:37;;;;;;;10.57;4.55;;;13.10;94.50;;;;;;4969987;28;20030;-79
2023/01/04 12:36:15;;;;;;;6.88;3.58;;;13.10;94.40;;;;;;4975738;28;20066;-77
2023/01/04 12:38:53;;;;;;;7.63;3.28;;;13.10;94.50;;;;;;4972060;28;20057;-77
2023/01/04 12:41:21;;;;;;;8.07;2.45;;;13.20;94.10;;;;;;4967120;28;20030;-77
2023/01/04 12:43:48;;;;;;;11.23;3.00;;;13.10;94.00;;;;;;4974411;28;20030;-79
2023/01/04 12:49:27;;;;;;;6.63;2.95;;;13.20;93.60;;;;;;4969843;28;20076;-76
2023/01/04 12:52:08;;;;;;;5.97;2.40;;;13.10;93.40;;;;;;4968004;28;20035;-79
2023/01/04 12:54:46;;;;;;;11.23;2.70;;;13.10;93.20;;;;;;4969183;28;20155;-76
2023/01/04 12:57:15;;;;;;;12.57;3.70;;;13.10;93.00;;;;;;4968789;28;20042;-79
2023/01/04 13:00:00;;;;;;;8.85;3.42;;;13.10;92.60;;;;;;4972004;28;20061;-78
2023/01/04 13:02:30;;;;;;;9.45;3.00;;;13.10;92.50;;;;;;4968311;28;20042;-79
2023/01/04 13:05:01;;;;;;;11.35;3.13;;;13.20;92.30;;;;;;4973397;28;20018;-72
2023/01/04 13:07:38;;;;;;;10.73;3.47;;;13.20;92.00;;;;;;4975135;28;20033;-73
2023/01/04 13:10:25;;;;;;;10.50;2.88;;;13.10;91.90;;;;;;4967803;28;20037;-74
2023/01/04 13:12:54;;;;;;;8.30;3.00;;;13.10;91.60;;;;;;4975831;28;20053;-73
2023/01/04 13:15:46;;;;;;;14.68;3.55;;;13.10;91.70;;;;;;4969895;28;20047;-73
2023/01/04 13:18:33;;;;;;;11.88;2.85;;;13.20;91.50;;;;;;4979372;28;20023;-75
2023/01/04 13:21:02;;;;;;;11.90;3.03;;;13.20;91.50;;;;;;4980677;28;20038;-75
2023/01/04 13:23:28;;;;;;;13.15;4.10;;;13.20;91.30;;;;;;4983787;28;20038;-76
2023/01/04 13:25:54;;;;;;;13.32;3.15;;;13.20;91.20;;;;;;4986093;28;20064;-79
2023/01/04 13:28:20;;;;;;;9.85;2.78;;;13.30;90.90;;;;;;4981579;28;20399;-79
2023/01/04 13:30:58;;;;;;;11.52;3.13;;;13.30;90.80;;;;;;4987496;28;20046;-75
2023/01/04 13:33:24;;;;;;;11.80;3.40;;;13.30;90.60;;;;;;4986127;28;20658;-77
2023/01/04 13:36:09;;;;;;;18.88;3.67;;;13.30;90.60;;;;;;4980175;28;20065;-81
2023/01/04 13:38:38;;;;;;;15.32;4.13;;;13.30;90.70;;;;;;4981900;28;20921;-81
2023/01/04 13:41:17;;;;;;;12.52;3.75;;;13.30;90.60;;;;;;4980869;28;20731;-79
2023/01/04 13:44:01;;;;;;;10.50;3.63;;;13.30;90.60;;;;;;4979939;28;20018;-80
2023/01/04 13:46:27;;;;;;;12.50;3.33;;;13.20;90.70;;;;;;4970861;28;20035;-79
2023/01/04 13:48:57;;;;;;;15.68;3.40;;;13.30;91.10;;;;;;4968751;28;20061;-78
2023/01/04 13:51:28;;;;;;;15.00;4.68;;;13.20;91.30;;;;;;4976644;28;20069;-79
2023/01/04 13:53:58;;;;;;;13.05;3.65;;;13.20;91.60;;;;;;4974620;28;20646;-79